sensor_id;sensor_type;location;lat;lon;timestamp;temperature;humidity
3699;DHT22;1865;50.918;7.092;2022-09-21T00:02:13;13.30;58.70
3699;DHT22;1865;50.918;7.092;2022-09-21T00:04:39;13.30;59.20
3699;DHT22;1865;50.918;7.092;2022-09-21T00:07:04;13.30;58.90
3699;DHT22;1865;50.918;7.092;2022-09-21T00:09:30;13.40;58.80
3699;DHT22;1865;50.918;7.092;2022-09-21T00:11:55;13.40;58.10
3699;DHT22;1865;50.918;7.092;2022-09-21T00:14:21;13.50;57.80
3699;DHT22;1865;50.918;7.092;2022-09-21T00:16:46;13.30;57.30
3699;DHT22;1865;50.918;7.092;2022-09-21T00:19:12;13.20;58.00
3699;DHT22;1865;50.918;7.092;2022-09-21T00:21:38;13.20;58.40
3699;DHT22;1865;50.918;7.092;2022-09-21T00:24:05;13.10;58.10
3699;DHT22;1865;50.918;7.092;2022-09-21T00:26:31;13.10;58.80
3699;DHT22;1865;50.918;7.092;2022-09-21T00:28:58;13.10;58.80
3699;DHT22;1865;50.918;7.092;2022-09-21T00:31:26;13.10;58.60
3699;DHT22;1865;50.918;7.092;2022-09-21T00:33:52;13.00;58.30
3699;DHT22;1865;50.918;7.092;2022-09-21T00:36:20;13.00;58.20
3699;DHT22;1865;50.918;7.092;2022-09-21T00:38:51;12.90;58.40
3699;DHT22;1865;50.918;7.092;2022-09-21T00:41:17;12.90;58.80
3699;DHT22;1865;50.918;7.092;2022-09-21T00:43:49;12.80;58.20
3699;DHT22;1865;50.918;7.092;2022-09-21T00:46:33;12.80;58.60
3699;DHT22;1865;50.918;7.092;2022-09-21T00:49:01;12.90;58.60
3699;DHT22;1865;50.918;7.092;2022-09-21T00:51:28;12.80;58.10
3699;DHT22;1865;50.918;7.092;2022-09-21T00:53:59;12.70;58.20
3699;DHT22;1865;50.918;7.092;2022-09-21T00:56:26;12.60;58.20
3699;DHT22;1865;50.918;7.092;2022-09-21T00:58:53;12.50;58.20
3699;DHT22;1865;50.918;7.092;2022-09-21T01:01:19;12.50;58.90
3699;DHT22;1865;50.918;7.092;2022-09-21T01:03:45;12.40;59.00
3699;DHT22;1865;50.918;7.092;2022-09-21T01:06:12;12.40;58.90
3699;DHT22;1865;50.918;7.092;2022-09-21T01:08:39;12.50;59.20
3699;DHT22;1865;50.918;7.092;2022-09-21T01:11:18;12.50;58.50
3699;DHT22;1865;50.918;7.092;2022-09-21T01:14:11;12.50;58.20
3699;DHT22;1865;50.918;7.092;2022-09-21T01:25:37;12.30;58.00
3699;DHT22;1865;50.918;7.092;2022-09-21T01:30:39;12.30;57.70
3699;DHT22;1865;50.918;7.092;2022-09-21T01:33:25;12.20;57.60
3699;DHT22;1865;50.918;7.092;2022-09-21T01:35:56;12.20;57.90
3699;DHT22;1865;50.918;7.092;2022-09-21T01:38:30;12.10;58.20
3699;DHT22;1865;50.918;7.092;2022-09-21T01:41:01;12.10;58.10
3699;DHT22;1865;50.918;7.092;2022-09-21T01:43:38;12.20;57.90
3699;DHT22;1865;50.918;7.092;2022-09-21T01:46:08;12.00;57.50
3699;DHT22;1865;50.918;7.092;2022-09-21T01:48:38;12.00;57.90
3699;DHT22;1865;50.918;7.092;2022-09-21T01:51:09;12.00;58.90
3699;DHT22;1865;50.918;7.092;2022-09-21T01:53:46;12.20;58.00
3699;DHT22;1865;50.918;7.092;2022-09-21T01:56:21;12.00;58.10
3699;DHT22;1865;50.918;7.092;2022-09-21T01:58:54;11.90;58.10
3699;DHT22;1865;50.918;7.092;2022-09-21T02:01:26;11.80;58.60
3699;DHT22;1865;50.918;7.092;2022-09-21T02:03:57;11.80;58.60
3699;DHT22;1865;50.918;7.092;2022-09-21T02:06:27;11.90;58.50
3699;DHT22;1865;50.918;7.092;2022-09-21T02:08:55;12.10;58.40
3699;DHT22;1865;50.918;7.092;2022-09-21T02:11:21;11.90;57.70
3699;DHT22;1865;50.918;7.092;2022-09-21T02:13:49;11.80;57.70
3699;DHT22;1865;50.918;7.092;2022-09-21T02:16:36;11.80;58.30
3699;DHT22;1865;50.918;7.092;2022-09-21T02:24:40;11.70;58.10
3699;DHT22;1865;50.918;7.092;2022-09-21T02:27:22;11.60;58.30
3699;DHT22;1865;50.918;7.092;2022-09-21T02:30:19;11.70;58.90
3699;DHT22;1865;50.918;7.092;2022-09-21T02:33:09;11.60;58.50
3699;DHT22;1865;50.918;7.092;2022-09-21T02:35:42;11.50;59.00
3699;DHT22;1865;50.918;7.092;2022-09-21T02:38:33;11.60;58.90
3699;DHT22;1865;50.918;7.092;2022-09-21T02:41:23;11.60;58.90
3699;DHT22;1865;50.918;7.092;2022-09-21T02:49:16;11.70;58.80
3699;DHT22;1865;50.918;7.092;2022-09-21T02:51:46;11.70;58.40
3699;DHT22;1865;50.918;7.092;2022-09-21T02:54:15;11.70;58.30
3699;DHT22;1865;50.918;7.092;2022-09-21T02:56:43;11.80;58.00
3699;DHT22;1865;50.918;7.092;2022-09-21T02:59:10;11.90;58.20
3699;DHT22;1865;50.918;7.092;2022-09-21T03:01:38;11.70;58.10
3699;DHT22;1865;50.918;7.092;2022-09-21T03:04:04;11.60;58.50
3699;DHT22;1865;50.918;7.092;2022-09-21T03:06:29;11.80;58.70
3699;DHT22;1865;50.918;7.092;2022-09-21T03:08:56;11.60;57.70
3699;DHT22;1865;50.918;7.092;2022-09-21T03:11:22;11.60;57.80
3699;DHT22;1865;50.918;7.092;2022-09-21T03:13:48;11.60;57.90
3699;DHT22;1865;50.918;7.092;2022-09-21T03:16:13;11.50;58.50
3699;DHT22;1865;50.918;7.092;2022-09-21T03:18:39;11.50;58.40
3699;DHT22;1865;50.918;7.092;2022-09-21T03:21:06;11.50;58.40
3699;DHT22;1865;50.918;7.092;2022-09-21T03:23:32;11.40;58.90
3699;DHT22;1865;50.918;7.092;2022-09-21T03:25:57;11.40;58.70
3699;DHT22;1865;50.918;7.092;2022-09-21T03:28:23;11.40;58.30
3699;DHT22;1865;50.918;7.092;2022-09-21T03:30:49;11.50;58.50
3699;DHT22;1865;50.918;7.092;2022-09-21T03:33:17;11.50;58.50
3699;DHT22;1865;50.918;7.092;2022-09-21T03:35:43;11.60;58.10
3699;DHT22;1865;50.918;7.092;2022-09-21T03:38:09;11.50;57.80
3699;DHT22;1865;50.918;7.092;2022-09-21T03:40:35;11.50;57.30
3699;DHT22;1865;50.918;7.092;2022-09-21T03:43:01;11.40;57.10
3699;DHT22;1865;50.918;7.092;2022-09-21T03:45:26;11.10;57.70
3699;DHT22;1865;50.918;7.092;2022-09-21T03:47:56;11.20;58.10
3699;DHT22;1865;50.918;7.092;2022-09-21T03:50:23;11.20;57.80
3699;DHT22;1865;50.918;7.092;2022-09-21T03:52:49;11.20;57.80
3699;DHT22;1865;50.918;7.092;2022-09-21T03:55:14;11.20;57.70
3699;DHT22;1865;50.918;7.092;2022-09-21T03:57:40;11.30;57.60
3699;DHT22;1865;50.918;7.092;2022-09-21T04:00:08;11.10;57.10
3699;DHT22;1865;50.918;7.092;2022-09-21T04:02:35;11.00;57.60
3699;DHT22;1865;50.918;7.092;2022-09-21T04:05:00;11.10;58.30
3699;DHT22;1865;50.918;7.092;2022-09-21T04:07:30;11.00;58.00
3699;DHT22;1865;50.918;7.092;2022-09-21T04:09:59;11.00;57.90
3699;DHT22;1865;50.918;7.092;2022-09-21T04:12:24;11.00;57.90
3699;DHT22;1865;50.918;7.092;2022-09-21T04:14:50;11.00;57.30
3699;DHT22;1865;50.918;7.092;2022-09-21T04:17:16;10.90;58.10
3699;DHT22;1865;50.918;7.092;2022-09-21T04:19:41;10.90;58.30
3699;DHT22;1865;50.918;7.092;2022-09-21T04:22:09;11.00;57.80
3699;DHT22;1865;50.918;7.092;2022-09-21T04:24:36;10.90;58.10
3699;DHT22;1865;50.918;7.092;2022-09-21T04:27:03;10.80;58.20
3699;DHT22;1865;50.918;7.092;2022-09-21T04:29:29;11.00;57.90
3699;DHT22;1865;50.918;7.092;2022-09-21T04:31:54;10.90;57.70
3699;DHT22;1865;50.918;7.092;2022-09-21T04:34:20;10.90;57.80
3699;DHT22;1865;50.918;7.092;2022-09-21T04:36:46;10.90;57.40
3699;DHT22;1865;50.918;7.092;2022-09-21T04:39:11;10.90;57.60
3699;DHT22;1865;50.918;7.092;2022-09-21T04:41:37;10.90;57.80
3699;DHT22;1865;50.918;7.092;2022-09-21T04:44:02;10.80;57.60
3699;DHT22;1865;50.918;7.092;2022-09-21T04:46:28;10.90;57.50
3699;DHT22;1865;50.918;7.092;2022-09-21T04:48:53;11.00;57.30
3699;DHT22;1865;50.918;7.092;2022-09-21T04:51:19;11.00;57.10
3699;DHT22;1865;50.918;7.092;2022-09-21T04:53:44;10.90;56.80
3699;DHT22;1865;50.918;7.092;2022-09-21T04:56:13;10.90;57.20
3699;DHT22;1865;50.918;7.092;2022-09-21T04:58:39;10.80;56.80
3699;DHT22;1865;50.918;7.092;2022-09-21T05:01:05;10.70;56.70
3699;DHT22;1865;50.918;7.092;2022-09-21T05:03:32;10.70;57.20
3699;DHT22;1865;50.918;7.092;2022-09-21T05:05:58;10.60;57.60
3699;DHT22;1865;50.918;7.092;2022-09-21T05:08:25;10.60;57.60
3699;DHT22;1865;50.918;7.092;2022-09-21T05:11:11;10.70;57.20
3699;DHT22;1865;50.918;7.092;2022-09-21T05:13:39;10.70;56.90
3699;DHT22;1865;50.918;7.092;2022-09-21T05:16:05;10.70;57.50
3699;DHT22;1865;50.918;7.092;2022-09-21T05:18:31;10.70;57.50
3699;DHT22;1865;50.918;7.092;2022-09-21T05:20:58;11.00;57.40
3699;DHT22;1865;50.918;7.092;2022-09-21T05:23:25;10.60;57.50
3699;DHT22;1865;50.918;7.092;2022-09-21T05:25:51;10.70;57.80
3699;DHT22;1865;50.918;7.092;2022-09-21T05:28:18;10.70;57.60
3699;DHT22;1865;50.918;7.092;2022-09-21T05:33:21;10.70;57.70
3699;DHT22;1865;50.918;7.092;2022-09-21T05:38:30;10.40;57.00
3699;DHT22;1865;50.918;7.092;2022-09-21T05:40:55;10.30;57.70
3699;DHT22;1865;50.918;7.092;2022-09-21T05:43:21;10.20;58.50
3699;DHT22;1865;50.918;7.092;2022-09-21T05:45:52;10.20;59.20
3699;DHT22;1865;50.918;7.092;2022-09-21T05:48:29;10.10;59.40
3699;DHT22;1865;50.918;7.092;2022-09-21T05:51:04;10.10;59.20
3699;DHT22;1865;50.918;7.092;2022-09-21T05:53:55;10.30;59.20
3699;DHT22;1865;50.918;7.092;2022-09-21T05:56:41;10.30;58.80
3699;DHT22;1865;50.918;7.092;2022-09-21T05:59:33;10.30;58.80
3699;DHT22;1865;50.918;7.092;2022-09-21T06:02:18;10.20;58.70
3699;DHT22;1865;50.918;7.092;2022-09-21T06:04:46;10.20;59.40
3699;DHT22;1865;50.918;7.092;2022-09-21T06:07:12;10.20;59.80
3699;DHT22;1865;50.918;7.092;2022-09-21T06:09:37;10.20;60.30
3699;DHT22;1865;50.918;7.092;2022-09-21T06:12:03;10.50;60.80
3699;DHT22;1865;50.918;7.092;2022-09-21T06:14:28;10.50;59.60
3699;DHT22;1865;50.918;7.092;2022-09-21T06:16:54;10.70;59.60
3699;DHT22;1865;50.918;7.092;2022-09-21T06:19:19;10.80;59.80
3699;DHT22;1865;50.918;7.092;2022-09-21T06:21:45;10.80;59.50
3699;DHT22;1865;50.918;7.092;2022-09-21T06:24:10;10.80;59.90
3699;DHT22;1865;50.918;7.092;2022-09-21T06:26:36;10.90;60.00
3699;DHT22;1865;50.918;7.092;2022-09-21T06:29:02;11.00;60.00
3699;DHT22;1865;50.918;7.092;2022-09-21T06:31:28;11.10;59.80
3699;DHT22;1865;50.918;7.092;2022-09-21T06:33:54;11.30;59.60
3699;DHT22;1865;50.918;7.092;2022-09-21T06:36:19;11.30;59.50
3699;DHT22;1865;50.918;7.092;2022-09-21T06:38:45;11.40;59.50
3699;DHT22;1865;50.918;7.092;2022-09-21T06:41:10;11.50;59.60
3699;DHT22;1865;50.918;7.092;2022-09-21T06:43:36;11.60;59.60
3699;DHT22;1865;50.918;7.092;2022-09-21T06:46:02;11.50;59.40
3699;DHT22;1865;50.918;7.092;2022-09-21T06:48:28;11.50;59.30
3699;DHT22;1865;50.918;7.092;2022-09-21T06:51:01;11.60;59.40
3699;DHT22;1865;50.918;7.092;2022-09-21T06:53:28;11.70;59.40
3699;DHT22;1865;50.918;7.092;2022-09-21T06:55:59;11.80;59.20
3699;DHT22;1865;50.918;7.092;2022-09-21T06:58:25;11.90;59.20
3699;DHT22;1865;50.918;7.092;2022-09-21T07:00:50;12.00;59.00
3699;DHT22;1865;50.918;7.092;2022-09-21T07:03:16;12.10;59.20
3699;DHT22;1865;50.918;7.092;2022-09-21T07:05:44;12.20;58.90
3699;DHT22;1865;50.918;7.092;2022-09-21T07:08:10;12.40;58.50
3699;DHT22;1865;50.918;7.092;2022-09-21T07:10:35;12.40;58.40
3699;DHT22;1865;50.918;7.092;2022-09-21T07:13:04;12.50;58.70
3699;DHT22;1865;50.918;7.092;2022-09-21T07:15:31;12.60;58.60
3699;DHT22;1865;50.918;7.092;2022-09-21T07:17:57;12.70;58.70
3699;DHT22;1865;50.918;7.092;2022-09-21T07:20:22;12.80;58.40
3699;DHT22;1865;50.918;7.092;2022-09-21T07:22:48;12.90;58.40
3699;DHT22;1865;50.918;7.092;2022-09-21T07:27:59;13.10;58.00
3699;DHT22;1865;50.918;7.092;2022-09-21T07:30:26;13.40;58.80
3699;DHT22;1865;50.918;7.092;2022-09-21T07:32:54;13.50;57.50
3699;DHT22;1865;50.918;7.092;2022-09-21T07:35:20;13.50;57.80
3699;DHT22;1865;50.918;7.092;2022-09-21T07:37:46;13.70;57.40
3699;DHT22;1865;50.918;7.092;2022-09-21T07:40:11;13.80;57.00
3699;DHT22;1865;50.918;7.092;2022-09-21T07:42:38;13.70;57.10
3699;DHT22;1865;50.918;7.092;2022-09-21T07:45:04;13.80;57.20
3699;DHT22;1865;50.918;7.092;2022-09-21T07:47:34;13.90;57.30
3699;DHT22;1865;50.918;7.092;2022-09-21T07:49:59;14.10;57.00
3699;DHT22;1865;50.918;7.092;2022-09-21T07:52:27;14.20;56.60
3699;DHT22;1865;50.918;7.092;2022-09-21T07:54:54;14.30;56.30
3699;DHT22;1865;50.918;7.092;2022-09-21T07:57:19;14.30;56.00
3699;DHT22;1865;50.918;7.092;2022-09-21T08:00:04;14.40;56.20
3699;DHT22;1865;50.918;7.092;2022-09-21T08:02:31;14.50;55.90
3699;DHT22;1865;50.918;7.092;2022-09-21T08:04:58;14.60;55.60
3699;DHT22;1865;50.918;7.092;2022-09-21T08:07:25;14.60;55.90
3699;DHT22;1865;50.918;7.092;2022-09-21T08:09:55;14.80;56.10
3699;DHT22;1865;50.918;7.092;2022-09-21T08:12:22;14.90;56.00
3699;DHT22;1865;50.918;7.092;2022-09-21T08:14:49;14.90;55.70
3699;DHT22;1865;50.918;7.092;2022-09-21T08:17:15;15.00;55.90
3699;DHT22;1865;50.918;7.092;2022-09-21T08:19:41;15.20;55.50
3699;DHT22;1865;50.918;7.092;2022-09-21T08:22:07;15.20;54.90
3699;DHT22;1865;50.918;7.092;2022-09-21T08:24:33;15.30;55.50
3699;DHT22;1865;50.918;7.092;2022-09-21T08:26:59;15.30;55.20
3699;DHT22;1865;50.918;7.092;2022-09-21T08:29:25;15.40;55.00
3699;DHT22;1865;50.918;7.092;2022-09-21T08:31:51;15.60;55.50
3699;DHT22;1865;50.918;7.092;2022-09-21T08:34:18;15.70;55.00
3699;DHT22;1865;50.918;7.092;2022-09-21T08:36:44;15.80;54.40
3699;DHT22;1865;50.918;7.092;2022-09-21T08:39:10;15.80;54.60
3699;DHT22;1865;50.918;7.092;2022-09-21T08:41:56;16.00;54.30
3699;DHT22;1865;50.918;7.092;2022-09-21T08:44:41;16.20;54.70
3699;DHT22;1865;50.918;7.092;2022-09-21T08:50:32;17.00;52.00
3699;DHT22;1865;50.918;7.092;2022-09-21T08:53:05;17.20;50.90
3699;DHT22;1865;50.918;7.092;2022-09-21T08:55:32;17.30;52.60
3699;DHT22;1865;50.918;7.092;2022-09-21T08:57:58;17.40;51.40
3699;DHT22;1865;50.918;7.092;2022-09-21T09:00:33;17.40;50.70
3699;DHT22;1865;50.918;7.092;2022-09-21T09:06:29;17.40;50.70
3699;DHT22;1865;50.918;7.092;2022-09-21T09:09:08;17.30;50.30
3699;DHT22;1865;50.918;7.092;2022-09-21T09:20:56;17.00;51.40
3699;DHT22;1865;50.918;7.092;2022-09-21T09:23:44;17.00;51.30
3699;DHT22;1865;50.918;7.092;2022-09-21T09:26:43;17.10;51.40
3699;DHT22;1865;50.918;7.092;2022-09-21T09:29:26;17.10;51.00
3699;DHT22;1865;50.918;7.092;2022-09-21T09:31:54;17.20;51.70
3699;DHT22;1865;50.918;7.092;2022-09-21T09:34:34;17.30;50.90
3699;DHT22;1865;50.918;7.092;2022-09-21T09:37:15;17.40;50.10
3699;DHT22;1865;50.918;7.092;2022-09-21T09:39:50;17.40;50.30
3699;DHT22;1865;50.918;7.092;2022-09-21T09:42:34;17.50;49.30
3699;DHT22;1865;50.918;7.092;2022-09-21T09:45:48;17.60;49.00
3699;DHT22;1865;50.918;7.092;2022-09-21T09:48:27;17.80;48.30
3699;DHT22;1865;50.918;7.092;2022-09-21T09:50:56;17.90;48.90
3699;DHT22;1865;50.918;7.092;2022-09-21T09:53:24;18.00;47.80
3699;DHT22;1865;50.918;7.092;2022-09-21T09:55:53;18.10;48.00
3699;DHT22;1865;50.918;7.092;2022-09-21T10:01:41;18.10;45.50
3699;DHT22;1865;50.918;7.092;2022-09-21T10:04:13;18.20;44.80
3699;DHT22;1865;50.918;7.092;2022-09-21T10:06:42;18.30;45.20
3699;DHT22;1865;50.918;7.092;2022-09-21T10:09:29;18.30;43.90
3699;DHT22;1865;50.918;7.092;2022-09-21T10:11:59;18.30;44.30
3699;DHT22;1865;50.918;7.092;2022-09-21T10:14:27;18.40;43.00
3699;DHT22;1865;50.918;7.092;2022-09-21T10:17:02;18.60;43.10
3699;DHT22;1865;50.918;7.092;2022-09-21T10:19:33;18.70;41.70
3699;DHT22;1865;50.918;7.092;2022-09-21T10:22:02;18.90;41.60
3699;DHT22;1865;50.918;7.092;2022-09-21T10:24:36;19.00;41.40
3699;DHT22;1865;50.918;7.092;2022-09-21T10:27:11;19.00;41.90
3699;DHT22;1865;50.918;7.092;2022-09-21T10:29:43;19.10;41.90
3699;DHT22;1865;50.918;7.092;2022-09-21T10:34:42;19.30;41.90
3699;DHT22;1865;50.918;7.092;2022-09-21T10:37:26;19.40;41.80
3699;DHT22;1865;50.918;7.092;2022-09-21T10:39:54;19.40;39.50
3699;DHT22;1865;50.918;7.092;2022-09-21T10:42:20;19.50;39.70
3699;DHT22;1865;50.918;7.092;2022-09-21T10:45:18;19.40;39.60
3699;DHT22;1865;50.918;7.092;2022-09-21T10:48:05;19.50;39.20
3699;DHT22;1865;50.918;7.092;2022-09-21T10:50:43;19.60;39.90
3699;DHT22;1865;50.918;7.092;2022-09-21T10:53:21;19.70;38.70
3699;DHT22;1865;50.918;7.092;2022-09-21T10:56:16;19.70;38.60
3699;DHT22;1865;50.918;7.092;2022-09-21T10:59:11;19.60;38.60
3699;DHT22;1865;50.918;7.092;2022-09-21T11:01:47;19.70;37.70
3699;DHT22;1865;50.918;7.092;2022-09-21T11:07:11;19.70;38.20
3699;DHT22;1865;50.918;7.092;2022-09-21T11:10:02;19.90;38.40
3699;DHT22;1865;50.918;7.092;2022-09-21T11:26:11;19.90;38.10
3699;DHT22;1865;50.918;7.092;2022-09-21T11:29:08;20.00;36.90
3699;DHT22;1865;50.918;7.092;2022-09-21T11:34:42;20.10;35.80
3699;DHT22;1865;50.918;7.092;2022-09-21T11:49:20;20.40;35.20
3699;DHT22;1865;50.918;7.092;2022-09-21T11:57:52;20.80;33.80
3699;DHT22;1865;50.918;7.092;2022-09-21T12:00:20;20.80;34.30
3699;DHT22;1865;50.918;7.092;2022-09-21T12:03:08;20.80;33.90
3699;DHT22;1865;50.918;7.092;2022-09-21T12:05:49;20.50;34.20
3699;DHT22;1865;50.918;7.092;2022-09-21T12:11:17;20.50;35.20
3699;DHT22;1865;50.918;7.092;2022-09-21T12:16:52;20.80;34.90
3699;DHT22;1865;50.918;7.092;2022-09-21T12:22:21;21.10;34.10
3699;DHT22;1865;50.918;7.092;2022-09-21T12:25:13;20.90;33.10
3699;DHT22;1865;50.918;7.092;2022-09-21T12:28:01;20.90;32.40
3699;DHT22;1865;50.918;7.092;2022-09-21T12:30:29;21.10;32.70
3699;DHT22;1865;50.918;7.092;2022-09-21T12:32:58;21.10;32.40
3699;DHT22;1865;50.918;7.092;2022-09-21T12:35:44;21.10;32.20
3699;DHT22;1865;50.918;7.092;2022-09-21T12:38:27;21.20;32.60
3699;DHT22;1865;50.918;7.092;2022-09-21T12:43:56;21.50;32.40
3699;DHT22;1865;50.918;7.092;2022-09-21T12:46:47;21.50;31.40
3699;DHT22;1865;50.918;7.092;2022-09-21T12:49:18;21.50;31.20
3699;DHT22;1865;50.918;7.092;2022-09-21T12:51:50;21.60;30.90
3699;DHT22;1865;50.918;7.092;2022-09-21T12:54:38;21.60;31.00
3699;DHT22;1865;50.918;7.092;2022-09-21T13:00:03;21.90;30.70
3699;DHT22;1865;50.918;7.092;2022-09-21T13:05:30;22.10;30.10
3699;DHT22;1865;50.918;7.092;2022-09-21T13:10:54;23.30;30.40
3699;DHT22;1865;50.918;7.092;2022-09-21T13:13:31;23.50;28.60
3699;DHT22;1865;50.918;7.092;2022-09-21T13:15:58;23.60;28.30
3699;DHT22;1865;50.918;7.092;2022-09-21T13:18:28;23.50;27.80
3699;DHT22;1865;50.918;7.092;2022-09-21T13:21:01;23.60;28.10
3699;DHT22;1865;50.918;7.092;2022-09-21T13:23:39;24.00;26.60
3699;DHT22;1865;50.918;7.092;2022-09-21T13:26:11;24.30;27.60
3699;DHT22;1865;50.918;7.092;2022-09-21T13:31:41;24.90;25.40
3699;DHT22;1865;50.918;7.092;2022-09-21T13:34:28;24.60;24.90
3699;DHT22;1865;50.918;7.092;2022-09-21T13:37:27;24.50;25.50
3699;DHT22;1865;50.918;7.092;2022-09-21T13:42:44;25.30;25.10
3699;DHT22;1865;50.918;7.092;2022-09-21T13:47:43;25.30;24.00
3699;DHT22;1865;50.918;7.092;2022-09-21T13:53:37;24.10;27.30
3699;DHT22;1865;50.918;7.092;2022-09-21T13:56:15;23.50;27.90
3699;DHT22;1865;50.918;7.092;2022-09-21T13:58:44;23.30;29.10
3699;DHT22;1865;50.918;7.092;2022-09-21T14:01:17;23.10;29.50
3699;DHT22;1865;50.918;7.092;2022-09-21T14:04:14;22.90;29.50
3699;DHT22;1865;50.918;7.092;2022-09-21T14:06:46;22.70;31.40
3699;DHT22;1865;50.918;7.092;2022-09-21T14:09:25;22.70;29.80
3699;DHT22;1865;50.918;7.092;2022-09-21T14:11:58;22.80;29.10
3699;DHT22;1865;50.918;7.092;2022-09-21T14:15:10;23.00;28.70
3699;DHT22;1865;50.918;7.092;2022-09-21T14:21:08;23.00;28.80
3699;DHT22;1865;50.918;7.092;2022-09-21T14:23:38;23.00;29.50
3699;DHT22;1865;50.918;7.092;2022-09-21T14:29:27;22.60;30.50
3699;DHT22;1865;50.918;7.092;2022-09-21T14:31:58;22.70;30.80
3699;DHT22;1865;50.918;7.092;2022-09-21T14:34:28;22.60;30.40
3699;DHT22;1865;50.918;7.092;2022-09-21T14:37:01;22.70;30.60
3699;DHT22;1865;50.918;7.092;2022-09-21T14:39:32;22.70;30.70
3699;DHT22;1865;50.918;7.092;2022-09-21T14:42:10;22.70;30.70
3699;DHT22;1865;50.918;7.092;2022-09-21T14:44:38;22.60;30.80
3699;DHT22;1865;50.918;7.092;2022-09-21T14:47:32;22.50;30.40
3699;DHT22;1865;50.918;7.092;2022-09-21T14:50:28;22.40;31.10
3699;DHT22;1865;50.918;7.092;2022-09-21T14:53:18;22.20;31.20
3699;DHT22;1865;50.918;7.092;2022-09-21T15:01:37;21.70;34.00
3699;DHT22;1865;50.918;7.092;2022-09-21T15:07:22;21.70;34.00
3699;DHT22;1865;50.918;7.092;2022-09-21T15:10:20;21.70;34.40
3699;DHT22;1865;50.918;7.092;2022-09-21T15:18:19;21.60;34.80
3699;DHT22;1865;50.918;7.092;2022-09-21T15:20:59;21.50;34.90
3699;DHT22;1865;50.918;7.092;2022-09-21T15:23:38;21.50;34.80
3699;DHT22;1865;50.918;7.092;2022-09-21T15:26:12;21.40;35.00
3699;DHT22;1865;50.918;7.092;2022-09-21T15:28:49;21.30;35.60
3699;DHT22;1865;50.918;7.092;2022-09-21T15:31:16;21.20;34.40
3699;DHT22;1865;50.918;7.092;2022-09-21T15:33:44;21.10;34.30
3699;DHT22;1865;50.918;7.092;2022-09-21T15:36:20;21.10;34.20
3699;DHT22;1865;50.918;7.092;2022-09-21T15:38:50;21.00;34.60
3699;DHT22;1865;50.918;7.092;2022-09-21T15:41:36;20.90;34.70
3699;DHT22;1865;50.918;7.092;2022-09-21T15:44:23;20.90;34.80
3699;DHT22;1865;50.918;7.092;2022-09-21T15:46:53;20.90;35.10
3699;DHT22;1865;50.918;7.092;2022-09-21T15:49:25;20.90;36.10
3699;DHT22;1865;50.918;7.092;2022-09-21T15:54:49;21.10;36.20
3699;DHT22;1865;50.918;7.092;2022-09-21T15:57:37;21.10;35.10
3699;DHT22;1865;50.918;7.092;2022-09-21T16:00:19;21.20;34.90
3699;DHT22;1865;50.918;7.092;2022-09-21T16:06:27;21.40;34.80
3699;DHT22;1865;50.918;7.092;2022-09-21T16:08:53;21.30;35.10
3699;DHT22;1865;50.918;7.092;2022-09-21T16:11:19;21.30;34.60
3699;DHT22;1865;50.918;7.092;2022-09-21T16:13:58;21.30;33.40
3699;DHT22;1865;50.918;7.092;2022-09-21T16:25:01;21.40;33.50
3699;DHT22;1865;50.918;7.092;2022-09-21T16:27:30;21.60;33.20
3699;DHT22;1865;50.918;7.092;2022-09-21T16:29:57;21.90;33.70
3699;DHT22;1865;50.918;7.092;2022-09-21T16:32:34;22.20;32.90
3699;DHT22;1865;50.918;7.092;2022-09-21T16:35:23;22.20;31.70
3699;DHT22;1865;50.918;7.092;2022-09-21T16:37:51;22.10;32.30
3699;DHT22;1865;50.918;7.092;2022-09-21T16:40:23;22.00;32.10
3699;DHT22;1865;50.918;7.092;2022-09-21T16:42:50;21.90;32.80
3699;DHT22;1865;50.918;7.092;2022-09-21T16:45:23;21.80;33.10
3699;DHT22;1865;50.918;7.092;2022-09-21T16:47:49;21.60;34.00
3699;DHT22;1865;50.918;7.092;2022-09-21T16:50:18;21.50;35.60
3699;DHT22;1865;50.918;7.092;2022-09-21T16:52:44;21.30;36.20
3699;DHT22;1865;50.918;7.092;2022-09-21T16:55:14;21.20;36.90
3699;DHT22;1865;50.918;7.092;2022-09-21T16:57:41;21.00;36.10
3699;DHT22;1865;50.918;7.092;2022-09-21T17:00:11;20.90;36.00
3699;DHT22;1865;50.918;7.092;2022-09-21T17:02:38;20.80;37.20
3699;DHT22;1865;50.918;7.092;2022-09-21T17:05:07;20.70;35.60
3699;DHT22;1865;50.918;7.092;2022-09-21T17:07:34;20.60;37.20
3699;DHT22;1865;50.918;7.092;2022-09-21T17:10:00;20.50;37.60
3699;DHT22;1865;50.918;7.092;2022-09-21T17:12:32;20.40;38.90
3699;DHT22;1865;50.918;7.092;2022-09-21T17:14:58;20.30;38.40
3699;DHT22;1865;50.918;7.092;2022-09-21T17:17:26;20.20;38.70
3699;DHT22;1865;50.918;7.092;2022-09-21T17:19:52;20.10;39.40
3699;DHT22;1865;50.918;7.092;2022-09-21T17:22:18;20.00;40.60
3699;DHT22;1865;50.918;7.092;2022-09-21T17:24:45;19.80;41.30
3699;DHT22;1865;50.918;7.092;2022-09-21T17:27:12;19.70;41.90
3699;DHT22;1865;50.918;7.092;2022-09-21T17:29:38;19.60;42.80
3699;DHT22;1865;50.918;7.092;2022-09-21T17:32:11;19.40;43.50
3699;DHT22;1865;50.918;7.092;2022-09-21T17:34:38;19.30;44.00
3699;DHT22;1865;50.918;7.092;2022-09-21T17:37:05;19.10;44.70
3699;DHT22;1865;50.918;7.092;2022-09-21T17:39:31;19.00;45.00
3699;DHT22;1865;50.918;7.092;2022-09-21T17:42:01;19.00;45.50
3699;DHT22;1865;50.918;7.092;2022-09-21T17:47:24;18.70;45.80
3699;DHT22;1865;50.918;7.092;2022-09-21T17:52:40;18.40;47.40
3699;DHT22;1865;50.918;7.092;2022-09-21T17:55:25;18.40;47.30
3699;DHT22;1865;50.918;7.092;2022-09-21T18:01:06;18.20;47.60
3699;DHT22;1865;50.918;7.092;2022-09-21T18:03:35;18.00;47.80
3699;DHT22;1865;50.918;7.092;2022-09-21T18:06:06;17.80;47.30
3699;DHT22;1865;50.918;7.092;2022-09-21T18:08:33;17.70;48.30
3699;DHT22;1865;50.918;7.092;2022-09-21T18:14:05;17.50;48.10
3699;DHT22;1865;50.918;7.092;2022-09-21T18:16:46;17.30;48.50
3699;DHT22;1865;50.918;7.092;2022-09-21T18:19:41;17.20;48.80
3699;DHT22;1865;50.918;7.092;2022-09-21T18:22:21;17.10;48.80
3699;DHT22;1865;50.918;7.092;2022-09-21T18:24:52;16.90;50.00
3699;DHT22;1865;50.918;7.092;2022-09-21T18:27:19;16.80;50.70
3699;DHT22;1865;50.918;7.092;2022-09-21T18:29:47;16.70;50.70
3699;DHT22;1865;50.918;7.092;2022-09-21T18:32:35;16.70;50.90
3699;DHT22;1865;50.918;7.092;2022-09-21T18:35:25;16.60;51.10
3699;DHT22;1865;50.918;7.092;2022-09-21T18:46:16;16.10;52.80
3699;DHT22;1865;50.918;7.092;2022-09-21T18:48:50;16.10;52.90
3699;DHT22;1865;50.918;7.092;2022-09-21T18:51:25;16.10;53.40
3699;DHT22;1865;50.918;7.092;2022-09-21T18:53:55;16.10;53.10
3699;DHT22;1865;50.918;7.092;2022-09-21T18:56:26;16.00;52.80
3699;DHT22;1865;50.918;7.092;2022-09-21T18:58:53;15.80;53.20
3699;DHT22;1865;50.918;7.092;2022-09-21T19:01:23;15.70;53.90
3699;DHT22;1865;50.918;7.092;2022-09-21T19:03:51;15.80;54.00
3699;DHT22;1865;50.918;7.092;2022-09-21T19:12:12;15.70;53.70
3699;DHT22;1865;50.918;7.092;2022-09-21T19:14:52;15.70;53.50
3699;DHT22;1865;50.918;7.092;2022-09-21T19:28:37;15.40;54.20
3699;DHT22;1865;50.918;7.092;2022-09-21T19:31:16;15.50;53.90
3699;DHT22;1865;50.918;7.092;2022-09-21T19:33:45;15.40;53.90
3699;DHT22;1865;50.918;7.092;2022-09-21T19:36:12;15.30;54.10
3699;DHT22;1865;50.918;7.092;2022-09-21T19:38:38;15.20;54.30
3699;DHT22;1865;50.918;7.092;2022-09-21T19:44:14;15.20;54.50
3699;DHT22;1865;50.918;7.092;2022-09-21T19:49:23;15.30;54.00
3699;DHT22;1865;50.918;7.092;2022-09-21T19:51:51;15.20;54.00
3699;DHT22;1865;50.918;7.092;2022-09-21T19:54:20;15.10;53.80